Arapahoe, NC

8:35 PM EDT on April 01, 2015 (GMT -0400)
Arapahoe, NC | | Change Station
CLOSE
Current Station
Personal Weather Station
Location: South Arapahoe, NC
Elevation: 75 ft
Nearby Weather Stations
Active Advisory: Frost Advisory

Elev 75 ft 35.01 °N, 76.82 °W | Updated 5 minutes ago

Clear
Clear
48.9 °F
Feels Like 49 °F
N
2.0
Wind Variable Wind from East
Gusts 5.0 mph

Today
High -- | Low -- °F
--% Chance of Precip.
Yesterday
High -- | Low -- °F
Precip. -- in
6:54 AM 7:28 PM
Waxing Gibbous, 94% visible
Pressure 30.21 in
Visibility 10.0 miles
Clouds Clear
Windchill 49 °F
Dew Point 41 °F
Humidity 75%
Rainfall 0.00 in
Snow Depth Not available.
UV 0.0 out of 12
Pollen 10.20 out of 12
Air Quality Not available.
Flu Activity Not available.
METAR KNKT 012354Z 07008KT 10SM CLR 11/04 A3022 RMK AO2 SLP228 T01060044 10161 20106 53023 $

More Conditions Fewer Conditions

Pressure 30.21 in
Visibility 10.0 miles
Clouds Clear
Windchill 49 °F
Dew Point 41 °F
Humidity 75%
Rainfall 0.00 in
Snow Depth Not available.
UV 0.0 out of 12
Pollen 10.20 out of 12
Air Quality Not available.
Flu Activity Not available.
METAR KNKT 012354Z 07008KT 10SM CLR 11/04 A3022 RMK AO2 SLP228 T01060044 10161 20106 53023 $

More Conditions Fewer Conditions

10-Day Weather Forecast

Almanac

Astronomy

Apr. 01, 2015 Rise Set
Actual Time
Civil Twilight
Nautical Twilight
Astronomical Twilight
Moon
Length of Visible Light
Length of Day
Tomorrow will be .
, % of the Moon is Illuminated

Today's Extremes

State Highs State Lows

Community

WunderPhotos

Upload Photos

1,810,131 photos uploaded!

WunderBlogs® & News

Nearby

Air Quality

  Air Quality AQ Index Pollutant
Not available.

Snow Depth

Station Depth Elevation

Earthquake Activity

City Distance Mag. Time & Date
Minimum magnitude displayed is 2.5.

Coastal Water Temperatures

Place Temperature

Stations

Nearby Weather Stations

Station Location Temp. Windchill Dew Point Humidity Wind Precip. Elev Updated Type
                   
Frost Advisory
Statement as of 3:33 PM EDT on April 01, 2015

... Frost advisory in effect from 4 am to 8 am EDT Thursday...

The National Weather Service in Newport/Morehead City has issued
a frost advisory... which is in effect from 4 am to 8 am EDT
Thursday.

* Temperatures... in the middle 30s.

* Timing... 4 am to 8 am.

Precautionary/preparedness actions...

A frost advisory means that frost is possible. Sensitive outdoor
plants may be killed if left uncovered.